createdAt,value
2023-03-21T00:01:34.462Z,100.00
2023-03-21T00:04:03.729Z,100.00
2023-03-21T00:06:32.796Z,100.00
2023-03-21T00:09:01.253Z,100.00
2023-03-21T00:11:32.458Z,100.00
2023-03-21T00:14:02.677Z,100.00
2023-03-21T00:16:37.146Z,100.00
2023-03-21T00:19:17.449Z,100.00
2023-03-21T00:24:43.100Z,100.00
2023-03-21T00:27:39.312Z,100.00
2023-03-21T00:30:01.052Z,100.00
2023-03-21T00:32:49.198Z,100.00
2023-03-21T00:35:57.364Z,100.00
2023-03-21T00:38:18.965Z,100.00
2023-03-21T00:40:49.266Z,100.00
2023-03-21T00:43:38.787Z,100.00
2023-03-21T00:46:07.698Z,100.00
2023-03-21T00:48:36.469Z,100.00
2023-03-21T00:51:17.796Z,100.00
2023-03-21T00:53:45.996Z,100.00
2023-03-21T00:56:14.367Z,100.00
2023-03-21T00:58:51.760Z,100.00
2023-03-21T01:01:22.927Z,100.00
2023-03-21T01:04:03.469Z,100.00
2023-03-21T01:06:40.628Z,100.00
2023-03-21T01:09:21.523Z,100.00
2023-03-21T01:11:51.354Z,100.00
2023-03-21T01:14:23.750Z,100.00
2023-03-21T01:16:53.782Z,100.00
2023-03-21T01:19:40.952Z,100.00
2023-03-21T01:22:12.983Z,100.00
2023-03-21T01:24:52.378Z,100.00
2023-03-21T01:27:22.721Z,100.00
2023-03-21T01:29:51.146Z,100.00
2023-03-21T01:32:28.997Z,100.00
2023-03-21T01:35:01.742Z,100.00
2023-03-21T01:37:32.696Z,100.00
2023-03-21T01:40:01.331Z,100.00
2023-03-21T01:42:32.630Z,100.00
2023-03-21T01:45:03.396Z,100.00
2023-03-21T01:47:31.921Z,100.00
2023-03-21T01:50:04.772Z,100.00
2023-03-21T01:52:39.227Z,100.00
2023-03-21T01:55:15.490Z,100.00
2023-03-21T01:58:05.800Z,100.00
2023-03-21T02:00:36.849Z,100.00
2023-03-21T02:03:16.954Z,100.00
2023-03-21T02:05:56.524Z,100.00
2023-03-21T02:08:36.745Z,100.00
2023-03-21T02:11:12.027Z,100.00
2023-03-21T02:13:50.266Z,100.00
2023-03-21T02:16:38.052Z,100.00
2023-03-21T02:19:41.635Z,100.00
2023-03-21T02:22:24.913Z,100.00
2023-03-21T02:25:31.792Z,100.00
2023-03-21T02:28:03.553Z,100.00
2023-03-21T02:30:50.787Z,100.00
2023-03-21T02:33:55.370Z,100.00
2023-03-21T02:36:36.240Z,100.00
2023-03-21T02:39:45.486Z,100.00
2023-03-21T02:42:33.733Z,100.00
2023-03-21T02:45:13.052Z,100.00
2023-03-21T02:47:54.273Z,100.00
2023-03-21T02:50:53.022Z,100.00
2023-03-21T02:53:25.865Z,100.00
2023-03-21T02:55:54.956Z,100.00
2023-03-21T02:58:27.475Z,100.00
2023-03-21T03:00:58.529Z,100.00
2023-03-21T03:03:34.134Z,100.00
2023-03-21T03:06:14.417Z,100.00
2023-03-21T03:09:01.295Z,100.00
2023-03-21T03:11:41.698Z,100.00
2023-03-21T03:14:50.002Z,100.00
2023-03-21T03:17:42.590Z,100.00
2023-03-21T03:20:21.169Z,100.00
2023-03-21T03:22:57.377Z,100.00
2023-03-21T03:25:43.495Z,100.00
2023-03-21T03:28:14.710Z,100.00
2023-03-21T03:31:00.897Z,100.00
2023-03-21T03:33:38.228Z,100.00
2023-03-21T03:36:31.504Z,100.00
2023-03-21T03:39:05.210Z,100.00
2023-03-21T03:42:10.250Z,100.00
2023-03-21T03:44:55.396Z,100.00
2023-03-21T03:47:50.777Z,100.00
2023-03-21T03:50:31.194Z,100.00
2023-03-21T03:53:18.054Z,99.97
2023-03-21T03:55:49.341Z,100.00
2023-03-21T03:58:36.140Z,100.00
2023-03-21T04:01:09.014Z,99.97
2023-03-21T04:03:49.914Z,99.99
2023-03-21T04:06:20.180Z,99.94
2023-03-21T04:08:52.320Z,99.82
2023-03-21T04:11:32.253Z,99.87
2023-03-21T04:14:03.710Z,99.83
2023-03-21T04:16:35.154Z,99.89
2023-03-21T04:19:04.189Z,99.87
2023-03-21T04:21:35.666Z,99.89
2023-03-21T04:24:05.799Z,99.86
2023-03-21T04:26:36.172Z,99.59
2023-03-21T04:29:05.564Z,99.67
2023-03-21T04:31:36.242Z,99.50
2023-03-21T04:34:12.878Z,99.37
2023-03-21T04:36:51.299Z,99.27
2023-03-21T04:39:19.662Z,99.32
2023-03-21T04:41:51.377Z,99.09
2023-03-21T04:44:20.209Z,98.72
2023-03-21T04:46:54.278Z,98.84
2023-03-21T04:49:23.285Z,98.41
2023-03-21T04:51:51.747Z,98.24
2023-03-21T04:54:21.313Z,98.18
2023-03-21T04:56:52.373Z,98.37
2023-03-21T04:59:21.674Z,98.01
2023-03-21T05:01:50.513Z,98.47
2023-03-21T05:04:20.318Z,98.51
2023-03-21T05:06:48.566Z,98.31
2023-03-21T05:09:16.920Z,98.26
2023-03-21T05:11:54.352Z,98.36
2023-03-21T05:14:26.320Z,98.21
2023-03-21T05:16:57.802Z,98.03
2023-03-21T05:19:41.018Z,98.26
2023-03-21T05:22:12.181Z,98.04
2023-03-21T05:24:42.136Z,97.99
2023-03-21T05:27:14.401Z,97.77
2023-03-21T05:29:42.770Z,97.79
2023-03-21T05:32:11.165Z,97.90
2023-03-21T05:34:42.477Z,97.79
2023-03-21T05:37:13.911Z,97.75
2023-03-21T05:39:42.853Z,97.55
2023-03-21T05:42:11.443Z,97.42
2023-03-21T05:44:41.310Z,97.00
2023-03-21T05:47:09.963Z,97.33
2023-03-21T05:49:55.449Z,97.41
2023-03-21T05:52:27.113Z,97.12
2023-03-21T05:54:55.729Z,96.65
2023-03-21T05:57:26.350Z,96.72
2023-03-21T05:59:55.423Z,96.65
2023-03-21T06:02:27.557Z,96.54
2023-03-21T06:04:57.030Z,96.64
2023-03-21T06:07:25.501Z,96.41
2023-03-21T06:09:57.039Z,96.59
2023-03-21T06:12:31.493Z,96.36
2023-03-21T06:15:06.375Z,96.31
2023-03-21T06:17:34.742Z,96.16
2023-03-21T06:20:07.451Z,96.19
2023-03-21T06:22:36.301Z,95.88
2023-03-21T06:25:05.977Z,96.16
2023-03-21T06:27:35.655Z,96.00
2023-03-21T06:30:12.891Z,96.15
2023-03-21T06:32:44.325Z,95.95
2023-03-21T06:35:12.785Z,95.70
2023-03-21T06:37:45.757Z,95.48
2023-03-21T06:40:14.900Z,95.87
2023-03-21T06:42:52.381Z,95.22
2023-03-21T06:45:20.700Z,95.58
2023-03-21T06:47:49.021Z,95.19
2023-03-21T06:50:17.432Z,95.39
2023-03-21T06:52:46.304Z,95.14
2023-03-21T06:55:14.564Z,95.04
2023-03-21T06:57:42.835Z,94.73
2023-03-21T07:00:14.884Z,94.67
2023-03-21T07:02:55.238Z,94.53
2023-03-21T07:05:25.552Z,94.54
2023-03-21T07:08:01.488Z,94.63
2023-03-21T07:10:30.260Z,94.25
2023-03-21T07:13:01.716Z,94.00
2023-03-21T07:15:30.037Z,93.86
2023-03-21T07:17:58.341Z,94.12
2023-03-21T07:20:29.036Z,93.61
2023-03-21T07:22:58.857Z,93.34
2023-03-21T07:25:27.862Z,93.35
2023-03-21T07:27:57.183Z,92.79
2023-03-21T07:30:28.384Z,92.82
2023-03-21T07:32:57.310Z,92.65
2023-03-21T07:35:25.781Z,92.26
2023-03-21T07:37:56.706Z,92.06
2023-03-21T07:40:28.562Z,92.27
2023-03-21T07:42:56.868Z,91.29
2023-03-21T07:45:27.598Z,91.50
2023-03-21T07:47:56.671Z,91.44
2023-03-21T07:50:25.115Z,91.20
2023-03-21T07:52:54.106Z,91.06
2023-03-21T07:55:22.524Z,90.78
2023-03-21T07:57:51.798Z,90.59
2023-03-21T08:00:24.734Z,90.41
2023-03-21T08:02:58.595Z,90.35
2023-03-21T08:05:31.386Z,89.68
2023-03-21T08:08:00.414Z,89.48
2023-03-21T08:10:28.945Z,89.13
2023-03-21T08:12:57.358Z,88.89
2023-03-21T08:15:25.824Z,88.36
2023-03-21T08:17:54.400Z,87.94
2023-03-21T08:20:23.698Z,88.37
2023-03-21T08:22:52.315Z,87.89
2023-03-21T08:25:23.382Z,87.76
2023-03-21T08:27:52.294Z,87.85
2023-03-21T08:30:23.073Z,87.84
2023-03-21T08:32:51.396Z,86.97
2023-03-21T08:35:20.621Z,86.34
2023-03-21T08:37:49.086Z,85.75
2023-03-21T08:40:19.064Z,85.47
2023-03-21T08:42:47.476Z,85.05
2023-03-21T08:45:18.457Z,84.15
2023-03-21T08:47:47.457Z,84.28
2023-03-21T08:50:19.224Z,84.34
2023-03-21T08:52:51.240Z,83.13
2023-03-21T08:55:20.002Z,83.25
2023-03-21T08:57:48.282Z,83.17
2023-03-21T09:00:18.550Z,82.87
2023-03-21T09:02:49.636Z,82.08
2023-03-21T09:05:26.748Z,81.37
2023-03-21T09:07:57.930Z,81.12
2023-03-21T09:10:26.405Z,80.80
2023-03-21T09:12:56.020Z,80.72
2023-03-21T09:15:28.944Z,80.43
2023-03-21T09:18:13.451Z,80.76
2023-03-21T09:20:46.842Z,80.31
2023-03-21T09:23:15.477Z,80.01
2023-03-21T09:25:46.993Z,79.40
2023-03-21T09:28:17.791Z,79.34
2023-03-21T09:30:46.603Z,79.12
2023-03-21T09:33:19.590Z,78.92
2023-03-21T09:35:50.664Z,79.11
2023-03-21T09:38:22.180Z,78.58
2023-03-21T09:41:09.174Z,78.72
2023-03-21T09:43:58.995Z,79.08
2023-03-21T09:46:42.850Z,79.44
2023-03-21T09:49:38.121Z,79.12
2023-03-21T09:52:22.482Z,79.30
2023-03-21T09:54:51.257Z,79.38
2023-03-21T09:57:30.484Z,79.94
2023-03-21T10:00:14.869Z,80.13
2023-03-21T10:02:50.785Z,79.73
2023-03-21T10:05:25.936Z,80.07
2023-03-21T10:08:04.896Z,80.22
2023-03-21T10:10:38.350Z,80.15
2023-03-21T10:13:14.970Z,80.29
2023-03-21T10:15:43.416Z,80.37
2023-03-21T10:18:21.231Z,80.60
2023-03-21T10:20:50.895Z,80.19
2023-03-21T10:23:25.172Z,80.74
2023-03-21T10:26:00.703Z,80.63
2023-03-21T10:28:46.065Z,80.52
2023-03-21T10:31:26.233Z,80.52
2023-03-21T10:33:59.232Z,80.40
2023-03-21T10:36:32.224Z,81.23
2023-03-21T10:39:05.250Z,80.86
2023-03-21T10:41:34.417Z,80.35
2023-03-21T10:44:15.151Z,80.19
2023-03-21T10:46:55.431Z,80.09
2023-03-21T10:49:26.660Z,80.47
2023-03-21T10:51:58.346Z,80.64
2023-03-21T10:54:36.552Z,80.57
2023-03-21T10:57:09.843Z,80.57
2023-03-21T10:59:44.472Z,80.24
2023-03-21T11:02:25.447Z,79.66
2023-03-21T11:04:55.792Z,80.22
2023-03-21T11:07:31.776Z,80.45
2023-03-21T11:10:14.631Z,80.30
2023-03-21T11:12:48.995Z,79.76
2023-03-21T11:15:52.429Z,80.19
2023-03-21T11:18:27.091Z,80.59
2023-03-21T11:21:07.842Z,80.44
2023-03-21T11:23:44.784Z,80.33
2023-03-21T11:26:24.444Z,80.71
2023-03-21T11:28:53.903Z,80.38
2023-03-21T11:31:25.173Z,80.40
2023-03-21T11:33:57.299Z,80.29
2023-03-21T11:36:34.036Z,80.60
2023-03-21T11:39:14.953Z,80.87
2023-03-21T11:41:48.179Z,80.72
2023-03-21T11:44:35.245Z,80.44
2023-03-21T11:47:03.430Z,80.78
2023-03-21T11:49:31.766Z,80.04
2023-03-21T11:52:26.753Z,80.05
2023-03-21T11:55:19.035Z,80.54
2023-03-21T11:57:57.980Z,79.82
2023-03-21T12:00:32.872Z,79.25
2023-03-21T12:03:19.971Z,79.39
2023-03-21T12:05:58.643Z,79.25
2023-03-21T12:08:56.002Z,78.80
2023-03-21T12:11:47.513Z,78.51
2023-03-21T12:14:21.469Z,78.18
2023-03-21T12:17:11.391Z,77.85
2023-03-21T12:19:45.507Z,78.60
2023-03-21T12:22:42.141Z,78.65
2023-03-21T12:25:25.053Z,78.36
2023-03-21T12:28:34.134Z,78.74
2023-03-21T12:31:17.418Z,78.66
2023-03-21T12:33:59.368Z,79.32
2023-03-21T12:36:45.403Z,79.08
2023-03-21T12:39:36.194Z,78.95
2023-03-21T12:42:13.643Z,78.64
2023-03-21T12:45:11.630Z,79.47
2023-03-21T12:47:49.001Z,78.90
2023-03-21T12:50:37.009Z,78.55
2023-03-21T12:53:27.245Z,78.27
2023-03-21T12:56:00.858Z,78.01
2023-03-21T12:58:31.646Z,77.93
2023-03-21T13:01:05.842Z,78.36
2023-03-21T13:03:44.110Z,78.24
2023-03-21T13:06:19.377Z,78.63
2023-03-21T13:08:56.325Z,78.32
2023-03-21T13:11:29.184Z,78.32
2023-03-21T13:14:15.447Z,78.09
2023-03-21T13:17:01.398Z,78.57
2023-03-21T13:19:47.837Z,79.01
2023-03-21T13:22:26.916Z,78.87
2023-03-21T13:25:03.405Z,78.67
2023-03-21T13:27:36.832Z,78.91
2023-03-21T13:30:18.597Z,78.90
2023-03-21T13:32:50.572Z,79.09
2023-03-21T13:35:27.798Z,79.39
2023-03-21T13:38:05.420Z,78.65
2023-03-21T13:41:07.726Z,79.10
2023-03-21T13:43:53.337Z,79.02
2023-03-21T13:46:34.119Z,79.57
2023-03-21T13:49:09.928Z,79.66
2023-03-21T13:51:53.668Z,79.67
2023-03-21T13:54:39.499Z,79.78
2023-03-21T13:57:15.836Z,79.60
2023-03-21T13:59:45.451Z,79.81
2023-03-21T14:02:13.664Z,79.57
2023-03-21T14:05:03.723Z,79.85
2023-03-21T14:07:36.878Z,80.05
2023-03-21T14:10:22.481Z,79.83
2023-03-21T14:13:02.214Z,80.01
2023-03-21T14:15:34.296Z,79.47
2023-03-21T14:18:52.900Z,79.46
2023-03-21T14:21:31.415Z,79.12
2023-03-21T14:24:12.809Z,79.50
2023-03-21T14:26:48.312Z,79.03
2023-03-21T14:29:36.074Z,79.13
2023-03-21T14:32:19.064Z,79.52
2023-03-21T14:34:49.067Z,79.13
2023-03-21T14:37:47.965Z,79.49
2023-03-21T14:40:23.551Z,78.98
2023-03-21T14:42:55.266Z,79.19
2023-03-21T14:45:31.934Z,79.29
2023-03-21T14:48:06.690Z,78.91
2023-03-21T14:50:43.534Z,78.96
2023-03-21T14:53:20.090Z,79.07
2023-03-21T14:55:59.329Z,78.85
2023-03-21T14:58:30.633Z,78.78
2023-03-21T15:01:04.401Z,79.28
2023-03-21T15:03:33.633Z,79.27
2023-03-21T15:06:02.705Z,79.29
2023-03-21T15:08:31.541Z,79.29
2023-03-21T15:11:07.973Z,78.99
2023-03-21T15:13:43.797Z,78.99
2023-03-21T15:16:15.135Z,79.19
2023-03-21T15:18:44.757Z,79.29
2023-03-21T15:21:18.771Z,79.36
2023-03-21T15:23:50.605Z,79.16
2023-03-21T15:26:22.297Z,79.26
2023-03-21T15:28:56.237Z,79.12
2023-03-21T15:31:31.201Z,79.20
2023-03-21T15:34:03.007Z,79.06
2023-03-21T15:36:38.057Z,78.63
2023-03-21T15:39:09.775Z,79.11
2023-03-21T15:41:47.419Z,78.58
2023-03-21T15:44:17.891Z,79.19
2023-03-21T15:47:00.833Z,78.96
2023-03-21T15:49:34.339Z,78.86
2023-03-21T15:52:20.274Z,78.95
2023-03-21T15:54:56.040Z,79.26
2023-03-21T15:57:34.297Z,79.09
2023-03-21T16:00:25.747Z,78.96
2023-03-21T16:03:03.514Z,79.19
2023-03-21T16:05:34.174Z,79.04
2023-03-21T16:08:23.134Z,79.33
2023-03-21T16:10:51.827Z,79.46
2023-03-21T16:13:22.981Z,79.09
2023-03-21T16:15:51.738Z,79.35
2023-03-21T16:18:20.679Z,79.47
2023-03-21T16:20:50.301Z,79.64
2023-03-21T16:23:18.917Z,79.33
2023-03-21T16:25:47.295Z,79.76
2023-03-21T16:28:17.595Z,79.98
2023-03-21T16:30:45.834Z,80.19
2023-03-21T16:33:25.621Z,79.85
2023-03-21T16:35:57.704Z,79.92
2023-03-21T16:38:30.200Z,80.35
2023-03-21T16:41:16.963Z,80.53
2023-03-21T16:43:58.756Z,80.68
2023-03-21T16:46:27.844Z,80.64
2023-03-21T16:49:01.841Z,80.66
2023-03-21T16:51:36.975Z,80.60
2023-03-21T16:54:14.948Z,80.78
2023-03-21T16:56:51.152Z,81.14
2023-03-21T16:59:28.716Z,81.09
2023-03-21T17:02:03.306Z,81.57
2023-03-21T17:04:34.848Z,81.29
2023-03-21T17:07:03.342Z,81.37
2023-03-21T17:09:31.830Z,81.80
2023-03-21T17:12:03.602Z,81.48
2023-03-21T17:14:32.622Z,81.81
2023-03-21T17:17:04.590Z,82.43
2023-03-21T17:19:36.694Z,82.16
2023-03-21T17:22:05.970Z,82.22
2023-03-21T17:24:35.863Z,82.63
2023-03-21T17:27:18.612Z,82.45
2023-03-21T17:29:47.833Z,82.85
2023-03-21T17:32:29.560Z,82.97
2023-03-21T17:35:01.486Z,82.79
2023-03-21T17:37:31.322Z,82.53
2023-03-21T17:40:00.514Z,82.98
2023-03-21T17:42:29.250Z,83.15
2023-03-21T17:45:05.493Z,83.49
2023-03-21T17:47:35.831Z,83.25
2023-03-21T17:50:04.943Z,83.47
2023-03-21T17:52:33.252Z,84.11
2023-03-21T17:55:01.596Z,83.87
2023-03-21T17:57:37.982Z,84.32
2023-03-21T18:00:12.795Z,84.14
2023-03-21T18:02:41.864Z,84.41
2023-03-21T18:05:10.969Z,84.74
2023-03-21T18:10:33.998Z,84.73
2023-03-21T18:13:02.514Z,84.71
2023-03-21T18:15:31.236Z,84.71
2023-03-21T18:18:00.325Z,85.24
2023-03-21T18:20:50.235Z,85.20
2023-03-21T18:23:19.310Z,85.32
2023-03-21T18:25:52.939Z,85.39
2023-03-21T18:28:22.298Z,85.21
2023-03-21T18:31:08.288Z,85.46
2023-03-21T18:33:40.607Z,85.63
2023-03-21T18:36:10.937Z,85.80
2023-03-21T18:38:39.362Z,85.87
2023-03-21T18:41:08.142Z,86.04
2023-03-21T18:44:05.188Z,86.02
2023-03-21T18:46:30.645Z,86.19
2023-03-21T18:48:59.089Z,86.03
2023-03-21T18:51:30.730Z,86.33
2023-03-21T18:54:00.995Z,86.48
2023-03-21T18:57:27.254Z,86.75
2023-03-21T18:59:22.637Z,86.57
2023-03-21T19:01:51.406Z,86.57
2023-03-21T19:04:30.438Z,86.83
2023-03-21T19:06:59.087Z,87.01
2023-03-21T19:09:31.563Z,86.63
2023-03-21T19:12:10.607Z,86.64
2023-03-21T19:14:40.153Z,86.64
2023-03-21T19:18:06.590Z,86.95
2023-03-21T19:19:57.652Z,87.11
2023-03-21T19:22:31.911Z,87.19
2023-03-21T19:25:00.495Z,87.17
2023-03-21T19:27:52.160Z,86.97
2023-03-21T19:30:27.744Z,87.15
2023-03-21T19:32:58.923Z,87.78
2023-03-21T19:35:28.302Z,87.21
2023-03-21T19:37:57.400Z,87.54
2023-03-21T19:40:28.950Z,87.57
2023-03-21T19:43:14.323Z,87.61
2023-03-21T19:45:48.923Z,87.36
2023-03-21T19:48:17.463Z,87.55
2023-03-21T19:51:13.831Z,87.59
2023-03-21T19:53:37.951Z,87.93
2023-03-21T19:56:19.732Z,88.11
2023-03-21T19:58:50.158Z,87.92
2023-03-21T20:01:19.299Z,87.98
2023-03-21T20:03:48.398Z,88.05
2023-03-21T20:06:19.162Z,88.20
2023-03-21T20:11:39.050Z,88.35
2023-03-21T20:14:07.530Z,88.72
2023-03-21T20:16:37.153Z,88.20
2023-03-21T20:19:09.131Z,88.38
2023-03-21T20:21:47.678Z,88.58
2023-03-21T20:24:23.540Z,88.24
2023-03-21T20:26:53.890Z,88.27
2023-03-21T20:30:08.130Z,88.60
2023-03-21T20:32:17.863Z,88.77
2023-03-21T20:34:50.319Z,88.67
2023-03-21T20:37:22.480Z,88.59
2023-03-21T20:39:51.048Z,88.99
2023-03-21T20:42:19.825Z,88.91
2023-03-21T20:44:58.335Z,88.66
2023-03-21T20:47:30.874Z,88.95
2023-03-21T20:50:00.142Z,88.63
2023-03-21T20:55:39.993Z,89.08
2023-03-21T20:58:43.664Z,89.01
2023-03-21T21:01:05.219Z,88.88
2023-03-21T21:03:44.767Z,89.14
2023-03-21T21:06:39.598Z,88.95
2023-03-21T21:09:19.839Z,88.96
2023-03-21T21:12:28.851Z,89.08
2023-03-21T21:15:00.595Z,89.21
2023-03-21T21:18:02.054Z,89.47
2023-03-21T21:20:33.897Z,89.20
2023-03-21T21:23:06.808Z,89.63
2023-03-21T21:25:42.484Z,89.33
2023-03-21T21:28:21.746Z,89.25
2023-03-21T21:30:55.928Z,89.48
2023-03-21T21:33:49.828Z,89.51
2023-03-21T21:36:30.210Z,89.18
2023-03-21T21:39:09.264Z,89.34
2023-03-21T21:42:04.878Z,89.14
2023-03-21T21:44:33.906Z,89.38
2023-03-21T21:47:21.469Z,89.57
2023-03-21T21:50:54.326Z,89.42
2023-03-21T21:53:23.345Z,89.34
2023-03-21T21:56:04.745Z,89.30
2023-03-21T21:58:39.123Z,89.33
2023-03-21T22:01:13.065Z,89.70
2023-03-21T22:03:44.209Z,89.44
2023-03-21T22:06:22.868Z,89.74
2023-03-21T22:09:11.444Z,90.11
2023-03-21T22:11:43.195Z,90.10
2023-03-21T22:14:17.138Z,89.89
2023-03-21T22:17:15.664Z,90.05
2023-03-21T22:20:05.101Z,89.49
2023-03-21T22:22:46.430Z,90.40
2023-03-21T22:25:38.513Z,90.19
2023-03-21T22:28:07.585Z,90.33
2023-03-21T22:30:39.654Z,90.38
2023-03-21T22:33:14.693Z,90.68
2023-03-21T22:35:49.628Z,90.28
2023-03-21T22:38:30.186Z,91.04
2023-03-21T22:41:03.320Z,90.61
2023-03-21T22:44:24.066Z,90.74
2023-03-21T22:47:21.575Z,90.68
2023-03-21T22:50:31.195Z,90.77
2023-03-21T22:53:00.491Z,90.78
2023-03-21T22:55:49.876Z,91.30
2023-03-21T22:59:21.549Z,91.23
2023-03-21T23:01:51.270Z,91.05
2023-03-21T23:05:08.995Z,90.97
2023-03-21T23:08:01.109Z,91.47
2023-03-21T23:11:12.331Z,91.17
2023-03-21T23:14:36.279Z,91.30
2023-03-21T23:18:38.103Z,91.26
2023-03-21T23:22:50.224Z,91.33
2023-03-21T23:31:10.303Z,91.48
2023-03-21T23:34:03.157Z,91.59
2023-03-21T23:37:17.569Z,91.55
2023-03-21T23:40:30.805Z,91.67
2023-03-21T23:43:17.610Z,91.61
2023-03-21T23:46:33.475Z,91.66
2023-03-21T23:49:59.406Z,91.77
2023-03-21T23:52:45.324Z,91.85
2023-03-21T23:56:02.673Z,91.98
